createdAt,value
2019-05-05T00:00:44.864Z,6.70
2019-05-05T00:03:20.535Z,6.80
2019-05-05T00:05:49.404Z,6.90
2019-05-05T00:08:17.828Z,6.90
2019-05-05T00:11:08.613Z,6.90
2019-05-05T00:13:44.313Z,6.90
2019-05-05T00:16:31.356Z,6.80
2019-05-05T00:18:59.941Z,6.80
2019-05-05T00:21:28.375Z,6.70
2019-05-05T00:23:56.505Z,6.70
2019-05-05T00:26:25.271Z,6.70
2019-05-05T00:28:55.369Z,6.70
2019-05-05T00:31:25.078Z,6.60
2019-05-05T00:33:54.395Z,6.60
2019-05-05T00:36:24.657Z,6.50
2019-05-05T00:38:54.985Z,6.40
2019-05-05T00:41:25.175Z,6.20
2019-05-05T00:43:55.222Z,6.10
2019-05-05T00:46:46.252Z,6.00
2019-05-05T00:49:14.692Z,6.00
2019-05-05T00:51:44.321Z,6.00
2019-05-05T00:54:14.908Z,5.90
2019-05-05T00:56:45.040Z,5.90
2019-05-05T00:59:15.599Z,5.80
2019-05-05T01:01:56.611Z,5.70
2019-05-05T01:04:32.718Z,5.60
2019-05-05T01:07:01.079Z,5.60
2019-05-05T01:09:30.202Z,5.60
2019-05-05T01:11:59.331Z,5.70
2019-05-05T01:14:27.752Z,5.80
2019-05-05T01:16:56.434Z,5.90
2019-05-05T01:19:24.899Z,5.90
2019-05-05T01:21:54.394Z,6.10
2019-05-05T01:24:22.532Z,6.10
2019-05-05T01:26:51.261Z,6.00
2019-05-05T01:29:19.683Z,6.00
2019-05-05T01:31:48.309Z,6.00
2019-05-05T01:34:35.834Z,6.00
2019-05-05T01:37:36.089Z,6.00
2019-05-05T01:40:17.067Z,5.90
2019-05-05T01:42:45.378Z,5.90
2019-05-05T01:45:14.952Z,5.90
2019-05-05T01:47:45.323Z,5.90
2019-05-05T01:50:20.879Z,5.90
2019-05-05T01:52:45.646Z,5.90
2019-05-05T01:55:14.684Z,5.90
2019-05-05T01:57:45.036Z,5.90
2019-05-05T02:00:14.864Z,6.00
2019-05-05T02:02:44.874Z,6.00
2019-05-05T02:05:14.829Z,6.00
2019-05-05T02:07:44.869Z,5.90
2019-05-05T02:10:15.489Z,5.70
2019-05-05T02:12:44.715Z,5.60
2019-05-05T02:15:14.926Z,5.40
2019-05-05T02:17:44.554Z,5.30
2019-05-05T02:20:39.277Z,5.20
2019-05-05T02:23:08.349Z,5.10
2019-05-05T02:25:37.271Z,4.80
2019-05-05T02:28:06.240Z,4.70
2019-05-05T02:30:55.043Z,4.60
2019-05-05T02:33:26.275Z,4.50
2019-05-05T02:35:55.865Z,4.50
2019-05-05T02:38:26.185Z,4.50
2019-05-05T02:40:55.359Z,4.60
2019-05-05T02:43:25.226Z,4.50
2019-05-05T02:46:30.303Z,4.30
2019-05-05T02:49:05.019Z,4.20
2019-05-05T02:51:35.472Z,4.20
2019-05-05T02:54:05.793Z,4.40
2019-05-05T02:56:44.564Z,4.60
2019-05-05T02:59:19.883Z,4.70
2019-05-05T03:01:54.985Z,4.80
2019-05-05T03:04:24.453Z,4.90
2019-05-05T03:06:55.781Z,5.10
2019-05-05T03:09:26.452Z,5.10
2019-05-05T03:11:58.380Z,5.10
2019-05-05T03:14:30.635Z,5.00
2019-05-05T03:17:00.301Z,4.90
2019-05-05T03:19:29.201Z,4.90
2019-05-05T03:22:00.256Z,4.90
2019-05-05T03:24:28.821Z,5.20
2019-05-05T03:26:57.779Z,5.40
2019-05-05T03:29:26.120Z,5.60
2019-05-05T03:31:56.488Z,5.70
2019-05-05T03:34:25.476Z,5.80
2019-05-05T03:36:54.322Z,5.80
2019-05-05T03:39:24.819Z,5.80
2019-05-05T03:42:10.984Z,5.80
2019-05-05T03:44:45.948Z,5.80
2019-05-05T03:47:14.108Z,5.80
2019-05-05T03:49:44.058Z,5.80
2019-05-05T03:52:13.905Z,5.90
2019-05-05T03:54:43.676Z,5.80
2019-05-05T03:57:14.087Z,5.80
2019-05-05T03:59:44.355Z,5.70
2019-05-05T04:02:38.423Z,5.70
2019-05-05T04:05:24.213Z,5.70
2019-05-05T04:07:54.528Z,5.70
2019-05-05T04:10:24.506Z,5.70
2019-05-05T04:12:54.027Z,5.60
2019-05-05T04:15:24.315Z,5.60
2019-05-05T04:18:04.080Z,5.50
2019-05-05T04:20:44.222Z,5.40
2019-05-05T04:23:14.126Z,5.40
2019-05-05T04:25:43.929Z,5.40
2019-05-05T04:28:13.607Z,5.60
2019-05-05T04:30:44.287Z,5.70
2019-05-05T04:33:11.817Z,5.70
2019-05-05T04:35:39.963Z,5.70
2019-05-05T04:38:08.662Z,5.70
2019-05-05T04:40:36.979Z,6.00
2019-05-05T04:43:05.501Z,6.30
2019-05-05T04:45:34.836Z,6.40
2019-05-05T04:48:16.472Z,6.40
2019-05-05T04:51:05.265Z,6.30
2019-05-05T04:53:40.690Z,6.20
2019-05-05T04:56:08.733Z,6.20
2019-05-05T04:58:36.771Z,6.10
2019-05-05T05:01:05.206Z,6.10
2019-05-05T05:03:54.289Z,6.10
2019-05-05T05:06:39.815Z,6.10
2019-05-05T05:09:08.084Z,6.10
2019-05-05T05:11:36.129Z,6.10
2019-05-05T05:14:04.632Z,6.20
2019-05-05T05:16:32.653Z,6.30
2019-05-05T05:19:05.654Z,6.40
2019-05-05T05:21:34.282Z,6.30
2019-05-05T05:24:03.983Z,6.30
2019-05-05T05:26:33.584Z,6.30
2019-05-05T05:29:01.716Z,6.30
2019-05-05T05:31:29.784Z,6.40
2019-05-05T05:33:58.258Z,6.50
2019-05-05T05:36:26.294Z,6.60
2019-05-05T05:38:57.477Z,6.90
2019-05-05T05:41:44.582Z,7.20
2019-05-05T05:44:33.912Z,7.40
2019-05-05T05:47:14.384Z,7.50
2019-05-05T05:49:54.474Z,7.60
2019-05-05T05:52:24.276Z,7.70
2019-05-05T05:54:53.517Z,7.70
2019-05-05T05:57:23.979Z,7.80
2019-05-05T05:59:51.793Z,7.90
2019-05-05T06:02:19.780Z,8.00
2019-05-05T06:04:47.850Z,8.10
2019-05-05T06:07:15.884Z,8.40
2019-05-05T06:09:44.078Z,8.60
2019-05-05T06:12:13.996Z,8.80
2019-05-05T06:14:44.672Z,9.00
2019-05-05T06:17:13.580Z,9.00
2019-05-05T06:19:44.444Z,9.10
2019-05-05T06:22:13.924Z,8.80
2019-05-05T06:24:48.799Z,8.60
2019-05-05T06:27:17.215Z,8.60
2019-05-05T06:29:46.058Z,8.60
2019-05-05T06:32:14.604Z,8.60
2019-05-05T06:34:45.684Z,8.80
2019-05-05T06:37:14.536Z,9.10
2019-05-05T06:39:43.987Z,9.40
2019-05-05T06:42:34.400Z,9.40
2019-05-05T06:45:08.341Z,9.40
2019-05-05T06:47:41.781Z,9.30
2019-05-05T06:50:09.395Z,9.30
2019-05-05T06:52:44.160Z,9.10
2019-05-05T06:55:07.071Z,9.00
2019-05-05T06:57:35.079Z,8.90
2019-05-05T07:00:03.812Z,8.80
2019-05-05T07:02:34.288Z,8.70
2019-05-05T07:05:03.938Z,8.20
2019-05-05T07:07:31.718Z,7.60
2019-05-05T07:09:59.631Z,7.20
2019-05-05T07:12:27.161Z,6.90
2019-05-05T07:14:55.081Z,6.80
2019-05-05T07:17:24.501Z,6.70
2019-05-05T07:19:54.215Z,6.70
2019-05-05T07:22:21.935Z,6.90
2019-05-05T07:24:51.217Z,7.10
2019-05-05T07:27:19.217Z,7.40
2019-05-05T07:29:47.313Z,7.70
2019-05-05T07:32:15.351Z,7.90
2019-05-05T07:34:55.185Z,8.10
2019-05-05T07:37:23.825Z,8.10
2019-05-05T07:39:53.900Z,8.10
2019-05-05T07:42:21.565Z,8.20
2019-05-05T07:44:49.223Z,8.10
2019-05-05T07:47:17.187Z,8.20
2019-05-05T07:49:44.929Z,8.10
2019-05-05T07:52:14.985Z,8.10
2019-05-05T07:54:43.605Z,8.20
2019-05-05T07:57:11.493Z,8.20
2019-05-05T07:59:40.281Z,8.30
2019-05-05T08:02:08.254Z,8.30
2019-05-05T08:04:36.169Z,8.50
2019-05-05T08:07:04.137Z,8.50
2019-05-05T08:09:33.766Z,8.60
2019-05-05T08:12:01.269Z,8.70
2019-05-05T08:14:28.905Z,8.70
2019-05-05T08:17:15.577Z,8.70
2019-05-05T08:20:08.566Z,8.90
2019-05-05T08:22:36.169Z,9.60
2019-05-05T08:25:36.341Z,10.00
2019-05-05T08:28:01.157Z,10.30
2019-05-05T08:33:51.625Z,10.60
2019-05-05T08:36:19.292Z,11.10
2019-05-05T08:38:47.014Z,10.30
2019-05-05T08:41:14.974Z,9.90
2019-05-05T08:43:44.098Z,9.90
2019-05-05T08:46:14.159Z,9.80
2019-05-05T08:48:41.667Z,9.70
2019-05-05T08:51:10.195Z,9.70
2019-05-05T08:53:44.792Z,9.60
2019-05-05T08:56:07.635Z,9.60
2019-05-05T08:58:35.550Z,9.70
2019-05-05T09:01:04.508Z,9.80
2019-05-05T09:03:33.669Z,9.60
2019-05-05T09:06:01.518Z,9.20
2019-05-05T09:08:29.142Z,8.60
2019-05-05T09:10:56.761Z,8.30
2019-05-05T09:13:24.742Z,8.10
2019-05-05T09:15:54.379Z,8.20
2019-05-05T09:18:24.447Z,8.30
2019-05-05T09:20:53.766Z,8.60
2019-05-05T09:23:21.370Z,8.80
2019-05-05T09:26:11.066Z,9.00
2019-05-05T09:29:07.595Z,9.70
2019-05-05T09:31:35.482Z,10.80
2019-05-05T09:34:04.163Z,11.10
2019-05-05T09:36:34.808Z,11.30
2019-05-05T09:39:04.358Z,11.80
2019-05-05T09:41:34.007Z,12.00
2019-05-05T09:44:04.257Z,11.80
2019-05-05T09:46:34.037Z,11.90
2019-05-05T09:49:24.464Z,12.80
2019-05-05T09:51:51.868Z,12.50
2019-05-05T09:54:19.799Z,11.50
2019-05-05T09:56:47.768Z,10.80
2019-05-05T09:59:15.610Z,10.70
2019-05-05T10:01:44.477Z,11.10
2019-05-05T10:04:18.212Z,11.70
2019-05-05T10:06:47.911Z,11.90
2019-05-05T10:09:15.782Z,11.80
2019-05-05T10:11:45.026Z,12.20
2019-05-05T10:14:14.327Z,13.10
2019-05-05T10:16:42.163Z,13.40
2019-05-05T10:19:10.409Z,13.00
2019-05-05T10:21:38.009Z,12.90
2019-05-05T10:24:27.144Z,12.70
2019-05-05T10:26:43.790Z,12.80
2019-05-05T10:29:13.665Z,12.40
2019-05-05T10:31:43.544Z,12.40
2019-05-05T10:34:13.751Z,12.60
2019-05-05T10:36:41.468Z,11.90
2019-05-05T10:39:16.958Z,11.60
2019-05-05T10:41:44.642Z,11.80
2019-05-05T10:44:14.129Z,12.30
2019-05-05T10:46:41.755Z,12.40
2019-05-05T10:49:09.698Z,12.60
2019-05-05T10:51:37.591Z,12.00
2019-05-05T10:54:15.300Z,11.30
2019-05-05T10:56:43.086Z,10.70
2019-05-05T10:59:10.906Z,10.60
2019-05-05T11:01:38.688Z,10.50
2019-05-05T11:04:06.648Z,10.50
2019-05-05T11:09:27.638Z,11.20
2019-05-05T11:11:55.755Z,11.70
2019-05-05T11:14:23.872Z,11.90
2019-05-05T11:16:52.033Z,12.00
2019-05-05T11:19:19.904Z,12.30
2019-05-05T11:21:47.508Z,12.40
2019-05-05T11:24:15.068Z,12.60
2019-05-05T11:26:44.539Z,13.10
2019-05-05T11:29:13.576Z,12.10
2019-05-05T11:31:41.485Z,11.50
2019-05-05T11:34:24.486Z,11.80
2019-05-05T11:39:41.637Z,12.60
2019-05-05T11:42:09.706Z,13.10
2019-05-05T11:44:37.802Z,13.10
2019-05-05T11:47:06.736Z,13.30
2019-05-05T11:49:34.786Z,13.40
2019-05-05T11:52:04.448Z,13.40
2019-05-05T11:54:32.110Z,13.30
2019-05-05T11:56:59.879Z,13.10
2019-05-05T11:59:27.541Z,13.30
2019-05-05T12:01:56.340Z,13.40
2019-05-05T12:04:24.393Z,13.80
2019-05-05T12:06:52.135Z,13.60
2019-05-05T12:09:30.109Z,13.20
2019-05-05T12:11:57.917Z,13.80
2019-05-05T12:14:35.902Z,13.80
2019-05-05T12:17:04.579Z,13.30
2019-05-05T12:19:33.636Z,12.70
2019-05-05T12:22:01.415Z,13.40
2019-05-05T12:24:33.929Z,13.50
2019-05-05T12:27:30.381Z,12.10
2019-05-05T12:30:03.788Z,12.20
2019-05-05T12:32:32.161Z,12.90
2019-05-05T12:34:59.817Z,13.20
2019-05-05T12:37:27.894Z,12.60
2019-05-05T12:39:55.535Z,12.30
2019-05-05T12:42:24.217Z,12.70
2019-05-05T12:45:04.417Z,12.50
2019-05-05T12:47:57.993Z,12.20
2019-05-05T12:50:25.757Z,12.00
2019-05-05T12:55:41.807Z,11.80
2019-05-05T12:58:08.751Z,11.70
2019-05-05T13:00:38.734Z,12.20
2019-05-05T13:03:06.734Z,12.50
2019-05-05T13:05:35.235Z,13.00
2019-05-05T13:08:03.901Z,13.10
2019-05-05T13:10:33.590Z,13.10
2019-05-05T13:13:04.493Z,12.70
2019-05-05T13:15:33.913Z,13.00
2019-05-05T13:18:03.651Z,12.60
2019-05-05T13:20:37.349Z,12.70
2019-05-05T13:23:23.555Z,13.10
2019-05-05T13:26:06.169Z,12.80
2019-05-05T13:28:34.457Z,12.90
2019-05-05T13:31:04.668Z,12.90
2019-05-05T13:33:33.637Z,13.20
2019-05-05T13:36:04.183Z,12.90
2019-05-05T13:38:31.871Z,13.10
2019-05-05T13:40:59.503Z,12.30
2019-05-05T13:43:27.501Z,11.50
2019-05-05T13:46:19.527Z,10.80
2019-05-05T13:48:47.186Z,10.70
2019-05-05T13:51:15.665Z,11.20
2019-05-05T13:53:44.740Z,12.40
2019-05-05T13:56:15.249Z,12.70
2019-05-05T13:58:43.771Z,12.80
2019-05-05T14:01:11.497Z,12.10
2019-05-05T14:03:47.486Z,11.70
2019-05-05T14:09:08.391Z,11.10
2019-05-05T14:11:36.770Z,12.10
2019-05-05T14:14:05.114Z,11.90
2019-05-05T14:16:34.101Z,11.70
2019-05-05T14:19:04.494Z,12.10
2019-05-05T14:21:33.925Z,12.40
2019-05-05T14:24:11.742Z,13.00
2019-05-05T14:26:39.747Z,13.10
2019-05-05T14:29:09.512Z,12.70
2019-05-05T14:31:39.120Z,12.00
2019-05-05T14:34:22.686Z,11.60
2019-05-05T14:37:14.270Z,11.50
2019-05-05T14:39:43.599Z,11.90
2019-05-05T14:42:12.141Z,12.40
2019-05-05T14:44:43.679Z,12.40
2019-05-05T14:47:13.588Z,12.50
2019-05-05T14:49:42.140Z,12.90
2019-05-05T14:52:10.529Z,12.10
2019-05-05T14:54:39.255Z,12.00
2019-05-05T14:57:08.302Z,12.30
2019-05-05T14:59:37.149Z,12.40
2019-05-05T15:02:05.895Z,12.30
2019-05-05T15:04:36.654Z,12.20
2019-05-05T15:07:27.261Z,12.20
2019-05-05T15:10:17.851Z,12.40
2019-05-05T15:12:49.960Z,12.30
2019-05-05T15:15:18.479Z,12.60
2019-05-05T15:17:46.990Z,12.80
2019-05-05T15:20:15.339Z,13.00
2019-05-05T15:22:43.770Z,12.40
2019-05-05T15:25:12.176Z,12.10
2019-05-05T15:27:41.674Z,12.00
2019-05-05T15:30:10.225Z,12.20
2019-05-05T15:32:38.797Z,12.20
2019-05-05T15:35:06.952Z,12.20
2019-05-05T15:37:35.225Z,12.60
2019-05-05T15:40:03.990Z,12.60
2019-05-05T15:42:33.510Z,12.60
2019-05-05T15:45:03.975Z,12.70
2019-05-05T15:47:34.129Z,12.00
2019-05-05T15:50:04.470Z,11.10
2019-05-05T15:52:35.142Z,10.80
2019-05-05T15:55:04.582Z,10.50
2019-05-05T15:57:33.567Z,10.40
2019-05-05T16:00:01.994Z,10.40
2019-05-05T16:02:30.268Z,10.40
2019-05-05T16:04:58.350Z,10.40
2019-05-05T16:07:26.556Z,10.30
2019-05-05T16:09:54.672Z,10.30
2019-05-05T16:12:33.675Z,10.40
2019-05-05T16:20:59.443Z,10.10
2019-05-05T16:23:35.947Z,9.90
2019-05-05T16:26:13.919Z,9.80
2019-05-05T16:28:41.690Z,9.70
2019-05-05T16:31:14.507Z,10.10
2019-05-05T16:33:43.994Z,10.90
2019-05-05T16:36:11.837Z,11.40
2019-05-05T16:38:43.467Z,11.40
2019-05-05T16:41:10.965Z,11.60
2019-05-05T16:43:38.597Z,11.90
2019-05-05T16:46:06.271Z,12.20
2019-05-05T16:48:34.649Z,12.40
2019-05-05T16:51:03.391Z,11.90
2019-05-05T16:53:34.854Z,10.70
2019-05-05T16:56:04.493Z,9.90
2019-05-05T16:58:33.379Z,9.50
2019-05-05T17:01:06.055Z,9.30
2019-05-05T17:03:45.380Z,9.20
2019-05-05T17:06:11.243Z,9.30
2019-05-05T17:08:38.867Z,9.40
2019-05-05T17:11:06.459Z,9.50
2019-05-05T17:13:59.559Z,9.40
2019-05-05T17:16:54.371Z,9.40
2019-05-05T17:19:33.870Z,9.30
2019-05-05T17:22:14.349Z,9.30
2019-05-05T17:24:43.910Z,9.20
2019-05-05T17:27:13.816Z,9.10
2019-05-05T17:29:43.983Z,9.10
2019-05-05T17:32:13.896Z,9.10
2019-05-05T17:34:42.129Z,9.10
2019-05-05T17:37:10.577Z,9.10
2019-05-05T17:39:44.843Z,9.10
2019-05-05T17:42:34.635Z,9.20
2019-05-05T17:45:24.250Z,9.30
2019-05-05T17:47:59.841Z,9.40
2019-05-05T17:51:05.637Z,9.40
2019-05-05T17:53:39.318Z,9.50
2019-05-05T17:56:09.051Z,9.50
2019-05-05T17:58:36.647Z,9.50
2019-05-05T18:01:04.434Z,9.50
2019-05-05T18:03:33.989Z,9.30
2019-05-05T18:06:23.589Z,9.20
2019-05-05T18:08:55.784Z,9.10
2019-05-05T18:11:47.969Z,8.90
2019-05-05T18:14:24.082Z,8.80
2019-05-05T18:16:54.062Z,8.70
2019-05-05T18:19:24.652Z,8.60
2019-05-05T18:21:51.978Z,8.60
2019-05-05T18:24:19.817Z,8.60
2019-05-05T18:26:47.809Z,8.60
2019-05-05T18:29:27.954Z,8.60
2019-05-05T18:34:51.750Z,8.50
2019-05-05T18:37:19.490Z,8.40
2019-05-05T18:39:47.203Z,8.30
2019-05-05T18:42:18.934Z,8.20
2019-05-05T18:47:43.384Z,7.90
2019-05-05T18:50:13.487Z,7.80
2019-05-05T18:52:41.246Z,7.70
2019-05-05T18:55:09.370Z,7.60
2019-05-05T18:57:36.870Z,7.60
2019-05-05T19:00:07.967Z,7.50
2019-05-05T19:02:58.024Z,7.40
2019-05-05T19:05:45.911Z,7.30
2019-05-05T19:08:31.676Z,7.20
2019-05-05T19:10:59.338Z,7.00
2019-05-05T19:13:27.315Z,7.00
2019-05-05T19:15:55.077Z,6.90
2019-05-05T19:18:24.478Z,6.80
2019-05-05T19:21:10.112Z,6.80
2019-05-05T19:23:37.730Z,6.70
2019-05-05T19:26:07.630Z,6.60
2019-05-05T19:28:44.323Z,6.50
2019-05-05T19:31:05.898Z,6.50
2019-05-05T19:33:34.021Z,6.50
2019-05-05T19:36:04.760Z,6.50
2019-05-05T19:38:31.833Z,6.60
2019-05-05T19:40:59.474Z,6.60
2019-05-05T19:43:27.436Z,6.70
2019-05-05T19:45:55.674Z,6.70
2019-05-05T19:48:24.459Z,6.70
2019-05-05T19:51:04.571Z,6.70
2019-05-05T19:53:35.242Z,6.70
2019-05-05T19:56:01.188Z,6.50
2019-05-05T19:58:29.162Z,6.50
2019-05-05T20:03:40.432Z,6.30
2019-05-05T20:06:08.546Z,6.10
2019-05-05T20:08:40.948Z,6.10
2019-05-05T20:11:05.859Z,6.10
2019-05-05T20:13:33.518Z,6.10
2019-05-05T20:16:19.358Z,6.00
2019-05-05T20:18:50.114Z,5.90
2019-05-05T20:21:16.490Z,5.80
2019-05-05T20:23:44.082Z,5.60
2019-05-05T20:26:14.388Z,5.30
2019-05-05T20:28:41.656Z,5.10
2019-05-05T20:31:09.284Z,5.00
2019-05-05T20:33:47.179Z,5.00
2019-05-05T20:36:17.848Z,4.80
2019-05-05T20:38:48.473Z,4.60
2019-05-05T20:41:17.671Z,4.50
2019-05-05T20:43:45.522Z,4.30
2019-05-05T20:46:13.526Z,4.30
2019-05-05T20:48:41.448Z,4.10
2019-05-05T20:51:09.325Z,3.90
2019-05-05T20:53:36.951Z,3.90
2019-05-05T20:56:04.852Z,3.70
2019-05-05T20:58:33.596Z,3.60
2019-05-05T21:01:04.527Z,3.50
2019-05-05T21:03:32.071Z,3.30
2019-05-05T21:05:59.673Z,3.20
2019-05-05T21:08:27.297Z,3.40
2019-05-05T21:10:54.909Z,3.60
2019-05-05T21:13:23.741Z,3.80
2019-05-05T21:15:59.288Z,3.80
2019-05-05T21:18:27.301Z,3.80
2019-05-05T21:20:57.442Z,3.70
2019-05-05T21:23:34.226Z,3.70
2019-05-05T21:26:24.932Z,3.70
2019-05-05T21:28:53.779Z,3.60
2019-05-05T21:31:23.899Z,3.60
2019-05-05T21:33:51.831Z,3.60
2019-05-05T21:36:19.709Z,3.50
2019-05-05T21:38:47.651Z,3.50
2019-05-05T21:41:15.391Z,3.30
2019-05-05T21:43:44.856Z,3.20
2019-05-05T21:46:13.272Z,3.20
2019-05-05T21:48:40.965Z,3.30
2019-05-05T21:51:28.845Z,3.30
2019-05-05T21:54:15.595Z,3.30
2019-05-05T21:56:57.251Z,3.10
2019-05-05T21:59:24.725Z,3.10
2019-05-05T22:01:52.680Z,3.20
2019-05-05T22:04:20.320Z,3.20
2019-05-05T22:06:48.603Z,3.20
2019-05-05T22:09:16.916Z,2.90
2019-05-05T22:11:44.589Z,2.90
2019-05-05T22:14:14.029Z,3.00
2019-05-05T22:16:44.463Z,3.00
2019-05-05T22:19:14.657Z,2.90
2019-05-05T22:21:54.496Z,3.00
2019-05-05T22:24:24.059Z,2.90
2019-05-05T22:26:54.132Z,2.60
2019-05-05T22:29:24.953Z,2.50
2019-05-05T22:31:53.375Z,2.40
2019-05-05T22:34:24.131Z,2.50
2019-05-05T22:36:53.405Z,2.60
2019-05-05T22:39:24.122Z,2.50
2019-05-05T22:41:54.348Z,2.60
2019-05-05T22:44:24.429Z,2.60
2019-05-05T22:46:53.836Z,2.50
2019-05-05T22:49:24.145Z,2.40
2019-05-05T22:51:54.028Z,2.40
2019-05-05T22:54:21.381Z,2.40
2019-05-05T22:56:49.345Z,2.50
2019-05-05T22:59:16.943Z,2.40
2019-05-05T23:01:44.837Z,2.30
2019-05-05T23:04:35.077Z,2.20
2019-05-05T23:07:11.911Z,2.20
2019-05-05T23:09:39.366Z,2.30
2019-05-05T23:12:06.892Z,2.40
2019-05-05T23:14:34.729Z,2.50
2019-05-05T23:17:30.906Z,2.60
2019-05-05T23:20:06.703Z,2.70
2019-05-05T23:22:48.663Z,2.80
2019-05-05T23:27:56.824Z,3.00
2019-05-05T23:30:37.871Z,3.00
2019-05-05T23:32:54.946Z,3.20
2019-05-05T23:35:23.945Z,3.20
2019-05-05T23:37:51.729Z,3.30
2019-05-05T23:40:24.668Z,3.20
2019-05-05T23:42:54.057Z,3.20
2019-05-05T23:45:24.702Z,3.20
2019-05-05T23:47:54.424Z,3.00
2019-05-05T23:50:22.810Z,3.00
2019-05-05T23:52:50.440Z,3.00
2019-05-05T23:55:18.258Z,3.00
2019-05-05T23:57:46.350Z,3.00
